Time;durP1;ratioP1;P1;durP2;ratioP2;P2;SDS_P1;SDS_P2;PMS_P1;PMS_P2;Temp;Humidity;BMP_temperature;BMP_pressure;BME280_temperature;BME280_humidity;BME280_pressure;Samples;Min_cycle;Max_cycle;Signal;HPM_P1;HPM_P2
2021/10/28 00:12:20;;;;;;;5.83;5.20;;;12.90;99.90;;;;;;5037995;28;20550;-69
2021/10/28 00:14:52;;;;;;;6.50;5.90;;;12.80;99.90;;;;;;5095191;28;20779;-69
2021/10/28 00:17:27;;;;;;;6.80;5.60;;;12.70;99.90;;;;;;5094916;28;20836;-69
2021/10/28 00:19:54;;;;;;;6.30;5.70;;;12.70;99.90;;;;;;5094784;28;20739;-69
2021/10/28 00:22:22;;;;;;;5.60;5.10;;;12.60;99.90;;;;;;5094743;28;20455;-69
2021/10/28 00:24:49;;;;;;;7.33;6.07;;;12.60;99.90;;;;;;5094558;28;20506;-69
2021/10/28 00:27:17;;;;;;;5.90;5.30;;;12.50;99.90;;;;;;5094967;28;20477;-69
2021/10/28 00:29:46;;;;;;;6.63;5.00;;;12.50;99.90;;;;;;5094362;28;20461;-69
2021/10/28 00:32:13;;;;;;;6.00;5.40;;;12.50;99.90;;;;;;5094695;28;20492;-68
2021/10/28 00:34:41;;;;;;;7.20;5.97;;;12.50;99.90;;;;;;5094348;28;20458;-68
2021/10/28 00:37:08;;;;;;;6.47;5.23;;;12.40;99.90;;;;;;5094665;28;20776;-69
2021/10/28 00:39:35;;;;;;;5.37;4.87;;;12.40;99.90;;;;;;5095038;28;20459;-68
2021/10/28 00:42:02;;;;;;;6.87;5.00;;;12.40;99.90;;;;;;5094769;28;20464;-68
2021/10/28 00:44:29;;;;;;;5.60;5.10;;;12.40;99.90;;;;;;5094622;28;20460;-68
2021/10/28 00:46:55;;;;;;;6.37;5.60;;;12.40;99.90;;;;;;5094380;28;20461;-68
2021/10/28 00:49:22;;;;;;;6.97;5.57;;;12.30;99.90;;;;;;5094495;28;20470;-68
2021/10/28 00:51:50;;;;;;;7.43;5.70;;;12.20;99.90;;;;;;5094591;28;20786;-68
2021/10/28 00:54:21;;;;;;;7.10;5.63;;;12.20;99.90;;;;;;5094354;28;20937;-68
2021/10/28 00:56:48;;;;;;;6.80;5.33;;;12.10;99.90;;;;;;5094642;28;20444;-68
2021/10/28 00:59:15;;;;;;;8.10;5.50;;;12.10;99.90;;;;;;5094525;28;20455;-68
2021/10/28 01:01:42;;;;;;;5.63;5.03;;;12.10;99.90;;;;;;5096476;28;20463;-68
2021/10/28 01:04:09;;;;;;;6.17;5.57;;;12.00;99.90;;;;;;5098712;28;20536;-69
2021/10/28 01:06:37;;;;;;;6.47;5.83;;;12.00;99.90;;;;;;5097858;28;20465;-68
2021/10/28 01:09:07;;;;;;;6.67;5.50;;;12.00;99.90;;;;;;5098625;28;20526;-68
2021/10/28 01:11:33;;;;;;;11.00;6.57;;;11.90;99.90;;;;;;5098491;28;20565;-68
2021/10/28 01:14:01;;;;;;;5.93;5.33;;;11.90;99.90;;;;;;5098226;28;20471;-68
2021/10/28 01:16:28;;;;;;;6.50;5.90;;;11.80;99.90;;;;;;5098455;28;20461;-69
2021/10/28 01:18:55;;;;;;;7.03;5.97;;;11.70;99.90;;;;;;5098271;28;20802;-69
2021/10/28 01:21:24;;;;;;;6.77;6.07;;;11.70;99.90;;;;;;5098240;28;20461;-68
2021/10/28 01:23:51;;;;;;;7.50;6.67;;;11.70;99.90;;;;;;5097862;28;20580;-69
2021/10/28 01:26:18;;;;;;;6.67;6.07;;;11.70;99.90;;;;;;5098416;28;20469;-68
2021/10/28 01:28:56;;;;;;;9.03;6.73;;;11.70;99.90;;;;;;5097438;28;20461;-68
2021/10/28 01:31:25;;;;;;;8.03;6.87;;;11.70;99.90;;;;;;5097965;28;20489;-68
2021/10/28 01:33:54;;;;;;;6.97;6.23;;;11.70;99.90;;;;;;5097836;28;20457;-68
2021/10/28 01:36:23;;;;;;;6.73;6.13;;;11.70;99.90;;;;;;5097636;28;20922;-68
2021/10/28 01:38:51;;;;;;;7.43;6.73;;;11.60;99.90;;;;;;5097594;28;20459;-68
2021/10/28 01:41:18;;;;;;;8.87;7.30;;;11.60;99.90;;;;;;5097251;28;20454;-69
2021/10/28 01:43:45;;;;;;;7.50;6.77;;;11.60;99.90;;;;;;5097619;28;20554;-68
2021/10/28 01:46:12;;;;;;;7.67;6.23;;;11.50;99.90;;;;;;5097895;28;20531;-68
2021/10/28 01:48:40;;;;;;;8.00;7.20;;;11.40;99.90;;;;;;5097645;28;20462;-68
2021/10/28 01:51:08;;;;;;;11.73;7.20;;;11.40;99.90;;;;;;5097430;28;20536;-68
2021/10/28 01:53:38;;;;;;;8.33;7.00;;;11.40;99.90;;;;;;5097437;28;20519;-68
2021/10/28 01:56:05;;;;;;;7.33;6.63;;;11.40;99.90;;;;;;5097252;28;20874;-68
2021/10/28 01:58:32;;;;;;;8.13;7.33;;;11.40;99.90;;;;;;5097253;28;20458;-68
2021/10/28 02:00:59;;;;;;;7.37;6.67;;;11.40;99.90;;;;;;5097213;28;20468;-68
2021/10/28 02:03:26;;;;;;;9.60;7.80;;;11.40;99.90;;;;;;5097033;28;20882;-68
2021/10/28 02:05:53;;;;;;;10.43;6.57;;;11.40;99.90;;;;;;5097853;28;20820;-68
2021/10/28 02:08:20;;;;;;;7.20;6.50;;;11.40;99.90;;;;;;5096991;28;20454;-68
2021/10/28 02:10:48;;;;;;;8.20;7.40;;;11.30;99.90;;;;;;5097112;28;20951;-68
2021/10/28 02:13:15;;;;;;;9.20;8.30;;;11.30;99.90;;;;;;5096552;28;20508;-68
2021/10/28 02:15:42;;;;;;;9.40;8.50;;;11.30;99.90;;;;;;5097315;28;20457;-69
2021/10/28 02:18:09;;;;;;;9.23;8.33;;;11.30;99.90;;;;;;5097443;28;20462;-68
2021/10/28 02:20:38;;;;;;;9.63;7.40;;;11.20;99.90;;;;;;5096851;28;20469;-68
2021/10/28 02:23:05;;;;;;;9.33;8.07;;;11.20;99.90;;;;;;5096705;28;20565;-69
2021/10/28 02:25:32;;;;;;;10.80;8.30;;;11.20;99.90;;;;;;5097028;28;20459;-68
2021/10/28 02:28:00;;;;;;;8.60;7.80;;;11.20;99.90;;;;;;5096763;28;20776;-68
2021/10/28 02:30:28;;;;;;;9.17;8.20;;;11.10;99.90;;;;;;5096667;28;20898;-68
2021/10/28 02:32:55;;;;;;;9.57;8.53;;;11.10;99.90;;;;;;5096827;28;20846;-68
2021/10/28 02:35:23;;;;;;;9.27;8.37;;;11.10;99.90;;;;;;5096370;28;20546;-68
2021/10/28 02:37:50;;;;;;;15.20;9.10;;;11.10;99.90;;;;;;5096559;28;20454;-68
2021/10/28 02:40:16;;;;;;;13.30;9.03;;;11.00;99.90;;;;;;5096625;28;20789;-68
2021/10/28 02:42:43;;;;;;;10.60;9.50;;;11.00;99.90;;;;;;5096513;28;20761;-68
2021/10/28 02:45:13;;;;;;;10.43;9.33;;;11.00;99.90;;;;;;5096303;28;20465;-68
2021/10/28 02:47:40;;;;;;;8.60;7.70;;;10.90;99.90;;;;;;5096439;28;20465;-69
2021/10/28 02:50:07;;;;;;;10.20;9.20;;;10.90;99.90;;;;;;5096716;28;20528;-67
2021/10/28 02:52:35;;;;;;;11.87;9.10;;;10.90;99.90;;;;;;5096723;28;20478;-68
2021/10/28 02:55:02;;;;;;;11.67;10.50;;;10.80;99.90;;;;;;5096599;28;20553;-67
2021/10/28 02:57:28;;;;;;;13.50;10.70;;;10.80;99.90;;;;;;5096028;28;20609;-67
2021/10/28 02:59:55;;;;;;;12.47;10.80;;;10.80;99.90;;;;;;5098034;28;20461;-68
2021/10/28 03:02:24;;;;;;;12.00;10.43;;;10.80;99.90;;;;;;5104599;28;20464;-68
2021/10/28 03:04:50;;;;;;;11.37;10.20;;;10.70;99.90;;;;;;5100632;28;20453;-68
2021/10/28 03:07:17;;;;;;;11.90;10.67;;;10.70;99.90;;;;;;5096088;28;20800;-68
2021/10/28 03:09:44;;;;;;;12.87;11.53;;;10.70;99.90;;;;;;5095959;28;20453;-68
2021/10/28 03:12:10;;;;;;;13.40;11.73;;;10.60;99.90;;;;;;5095724;28;20489;-68
2021/10/28 03:14:41;;;;;;;14.63;11.87;;;10.60;99.90;;;;;;5095775;28;20465;-68
2021/10/28 03:17:23;;;;;;;12.87;11.47;;;10.50;99.90;;;;;;5095372;28;20457;-68
2021/10/28 03:25:31;;;;;;;12.93;11.53;;;10.50;99.90;;;;;;5095825;28;20453;-68
2021/10/28 03:25:38;;;;;;;14.27;11.20;;;10.50;99.90;;;;;;5094805;28;20969;-68
2021/10/28 03:28:05;;;;;;;12.60;11.07;;;10.40;99.90;;;;;;5095332;28;20442;-68
2021/10/28 03:30:32;;;;;;;17.23;12.60;;;10.40;99.90;;;;;;5095653;28;20458;-68
2021/10/28 03:33:02;;;;;;;15.50;12.60;;;10.40;99.90;;;;;;5095326;28;20480;-68
2021/10/28 03:35:30;;;;;;;13.40;11.80;;;10.40;99.90;;;;;;5095221;28;20486;-68
2021/10/28 03:37:59;;;;;;;16.50;12.33;;;10.40;99.90;;;;;;5095395;28;20769;-68
2021/10/28 03:40:44;;;;;;;13.80;11.37;;;10.40;99.90;;;;;;5095536;28;20470;-68
2021/10/28 03:43:32;;;;;;;15.17;11.70;;;10.40;99.90;;;;;;5094774;28;20433;-68
2021/10/28 03:46:30;;;;;;;18.40;11.90;;;10.30;99.90;;;;;;5095365;28;20457;-68
2021/10/28 03:49:16;;;;;;;14.27;11.60;;;10.30;99.90;;;;;;5095416;28;20567;-68
2021/10/28 03:52:21;;;;;;;14.10;11.47;;;10.30;99.90;;;;;;5094701;28;21000;-67
2021/10/28 03:55:17;;;;;;;13.73;12.07;;;10.30;99.90;;;;;;5094746;28;20453;-67
2021/10/28 03:58:18;;;;;;;14.00;11.63;;;10.20;99.90;;;;;;5095435;28;20449;-68
2021/10/28 04:01:06;;;;;;;13.40;11.03;;;10.10;99.90;;;;;;5095035;28;20452;-67
2021/10/28 04:06:36;;;;;;;14.40;11.20;;;10.10;99.90;;;;;;5094967;28;20425;-67
2021/10/28 04:28:55;;;;;;;17.43;11.27;;;10.00;99.90;;;;;;5094497;28;20478;-69
2021/10/28 04:31:23;;;;;;;12.77;10.53;;;10.00;99.90;;;;;;5094837;28;20474;-69
2021/10/28 04:33:50;;;;;;;13.80;12.30;;;10.00;99.90;;;;;;5094424;28;20459;-66
2021/10/28 04:36:16;;;;;;;15.20;12.17;;;10.00;99.90;;;;;;5094148;28;20464;-69
2021/10/28 04:38:43;;;;;;;14.87;11.30;;;9.90;99.90;;;;;;5094851;28;20828;-69
2021/10/28 04:41:11;;;;;;;16.53;11.23;;;9.90;99.90;;;;;;5094334;28;20454;-69
2021/10/28 04:43:38;;;;;;;13.80;11.40;;;9.90;99.90;;;;;;5094913;28;20453;-69
2021/10/28 04:46:05;;;;;;;13.57;11.10;;;9.90;99.90;;;;;;5094943;28;20459;-69
2021/10/28 04:48:31;;;;;;;17.10;11.50;;;10.00;99.90;;;;;;5094584;28;20840;-69
2021/10/28 04:50:58;;;;;;;14.20;10.97;;;9.90;99.90;;;;;;5094602;28;20472;-69
2021/10/28 04:53:27;;;;;;;16.40;12.80;;;9.90;99.90;;;;;;5094655;28;20485;-69
2021/10/28 04:55:54;;;;;;;15.90;12.17;;;9.90;99.90;;;;;;5094387;28;20456;-69
2021/10/28 04:58:23;;;;;;;16.80;13.43;;;9.80;99.90;;;;;;5094533;28;20517;-69
2021/10/28 05:00:50;;;;;;;14.00;12.17;;;9.80;99.90;;;;;;5094342;28;20455;-68
2021/10/28 05:03:17;;;;;;;13.77;11.80;;;9.80;99.90;;;;;;5094469;28;20778;-67
2021/10/28 05:05:44;;;;;;;14.13;12.63;;;9.70;99.90;;;;;;5094419;28;20744;-69
2021/10/28 05:08:11;;;;;;;15.67;12.40;;;9.70;99.90;;;;;;5094073;28;20543;-68
2021/10/28 05:10:42;;;;;;;18.40;13.07;;;9.70;99.90;;;;;;5094811;28;20453;-68
2021/10/28 05:13:12;;;;;;;13.90;11.10;;;9.70;99.90;;;;;;5094591;28;20863;-68
2021/10/28 05:15:44;;;;;;;15.87;12.57;;;9.70;99.90;;;;;;5093945;28;20509;-68
2021/10/28 05:18:11;;;;;;;15.10;12.03;;;9.70;99.90;;;;;;5094191;28;20467;-68
2021/10/28 05:20:38;;;;;;;17.23;12.30;;;9.70;99.90;;;;;;5094472;28;20552;-68
2021/10/28 05:23:04;;;;;;;14.77;11.80;;;9.70;99.90;;;;;;5094012;28;20516;-68
2021/10/28 05:25:31;;;;;;;15.17;11.97;;;9.70;99.90;;;;;;5094093;28;20442;-68
2021/10/28 05:27:59;;;;;;;14.87;12.10;;;9.70;99.90;;;;;;5093836;28;20457;-68
2021/10/28 05:30:26;;;;;;;15.57;12.07;;;9.60;99.90;;;;;;5094400;28;20450;-68
2021/10/28 05:32:54;;;;;;;16.67;14.17;;;9.60;99.90;;;;;;5097699;28;20492;-67
2021/10/28 05:35:20;;;;;;;19.50;14.23;;;9.60;99.90;;;;;;5097871;28;20458;-70
2021/10/28 05:37:47;;;;;;;15.43;11.80;;;9.60;99.90;;;;;;5100229;28;20468;-69
2021/10/28 05:40:14;;;;;;;16.83;12.90;;;9.60;99.90;;;;;;5097457;28;20798;-69
2021/10/28 05:42:46;;;;;;;15.30;12.40;;;9.50;99.90;;;;;;5095055;28;20920;-69
2021/10/28 05:45:15;;;;;;;15.10;12.40;;;9.60;99.90;;;;;;5094787;28;20503;-69
2021/10/28 05:47:41;;;;;;;15.70;12.60;;;9.50;99.90;;;;;;5096660;28;20453;-69
2021/10/28 05:50:14;;;;;;;16.70;12.87;;;9.60;99.90;;;;;;5099339;28;20888;-69
2021/10/28 05:52:41;;;;;;;14.30;12.40;;;9.50;99.90;;;;;;5097655;28;20462;-70
2021/10/28 05:55:09;;;;;;;16.37;13.17;;;9.50;99.90;;;;;;5097151;28;20454;-69
2021/10/28 05:57:36;;;;;;;17.83;12.83;;;9.50;99.90;;;;;;5097536;28;20954;-69
2021/10/28 06:00:05;;;;;;;17.00;13.57;;;9.50;99.90;;;;;;5096817;28;20491;-69
2021/10/28 06:02:32;;;;;;;16.53;12.50;;;9.60;99.90;;;;;;5097484;28;20476;-69
2021/10/28 06:05:01;;;;;;;18.07;13.00;;;9.60;99.90;;;;;;5097463;28;20526;-67
2021/10/28 06:07:29;;;;;;;16.63;12.93;;;9.50;99.90;;;;;;5097654;28;20459;-69
2021/10/28 06:09:56;;;;;;;14.47;12.27;;;9.40;99.90;;;;;;5097223;28;20964;-69
2021/10/28 06:12:24;;;;;;;19.20;13.50;;;9.40;99.90;;;;;;5096725;28;20761;-67
2021/10/28 06:14:51;;;;;;;18.50;13.70;;;9.50;99.90;;;;;;5097530;28;20457;-69
2021/10/28 06:17:19;;;;;;;17.77;13.43;;;9.50;99.90;;;;;;5097518;28;20842;-69
2021/10/28 06:19:46;;;;;;;16.80;12.10;;;9.50;99.90;;;;;;5099803;28;20469;-69
2021/10/28 06:22:13;;;;;;;16.73;13.27;;;9.50;99.90;;;;;;5097557;28;20454;-69
2021/10/28 06:24:41;;;;;;;20.10;16.30;;;9.60;99.90;;;;;;5097171;28;20488;-68
2021/10/28 06:27:07;;;;;;;16.97;12.60;;;9.50;99.90;;;;;;5097104;28;20470;-69
2021/10/28 06:29:34;;;;;;;17.60;13.57;;;9.50;99.90;;;;;;5096652;28;20485;-69
2021/10/28 06:32:01;;;;;;;16.50;12.70;;;9.50;99.90;;;;;;5097119;28;20519;-69
2021/10/28 06:34:33;;;;;;;16.73;12.43;;;9.50;99.90;;;;;;5096746;28;20522;-69
2021/10/28 06:37:04;;;;;;;17.00;13.03;;;9.60;99.90;;;;;;5096775;28;20499;-69
2021/10/28 06:39:30;;;;;;;17.17;12.73;;;9.60;99.90;;;;;;5096738;28;20441;-69
2021/10/28 06:41:59;;;;;;;17.23;13.70;;;9.50;99.90;;;;;;5096544;28;20466;-69
2021/10/28 06:44:26;;;;;;;20.53;13.70;;;9.50;99.90;;;;;;5096172;28;20479;-69
2021/10/28 06:46:53;;;;;;;25.93;13.70;;;9.50;99.90;;;;;;5096578;28;20453;-68
2021/10/28 06:49:19;;;;;;;16.10;13.87;;;9.50;99.90;;;;;;5096497;28;20458;-69
2021/10/28 06:51:46;;;;;;;16.07;13.10;;;9.60;99.90;;;;;;5096061;28;20468;-69
2021/10/28 06:54:21;;;;;;;21.13;13.83;;;9.60;99.90;;;;;;5096007;28;20564;-69
2021/10/28 06:57:02;;;;;;;17.73;13.30;;;9.60;99.90;;;;;;5096268;28;20538;-69
2021/10/28 07:02:18;;;;;;;18.57;12.80;;;9.60;99.90;;;;;;5095716;28;20491;-69
2021/10/28 07:04:46;;;;;;;18.57;13.23;;;9.70;99.90;;;;;;5095995;28;20533;-69
2021/10/28 07:07:13;;;;;;;19.50;14.00;;;9.70;99.90;;;;;;5095840;28;20452;-69
2021/10/28 07:09:42;;;;;;;17.57;13.70;;;9.70;99.90;;;;;;5095840;28;20907;-69
2021/10/28 07:12:15;;;;;;;19.07;13.17;;;9.70;99.90;;;;;;5095639;28;20517;-69
2021/10/28 07:14:47;;;;;;;14.53;11.00;;;9.80;99.90;;;;;;5095674;28;20449;-69
2021/10/28 07:17:24;;;;;;;18.27;13.50;;;9.80;99.90;;;;;;5095635;28;20505;-69
2021/10/28 07:20:04;;;;;;;22.37;15.20;;;9.80;99.90;;;;;;5096383;28;20881;-69
2021/10/28 07:22:39;;;;;;;17.97;12.97;;;9.80;99.90;;;;;;5095573;28;20976;-69
2021/10/28 07:25:20;;;;;;;18.83;14.17;;;9.80;99.90;;;;;;5095407;28;20488;-69
2021/10/28 07:28:03;;;;;;;21.90;14.20;;;9.80;99.90;;;;;;5095740;28;20521;-69
2021/10/28 07:30:39;;;;;;;17.60;12.60;;;9.90;99.90;;;;;;5095208;28;20481;-69
2021/10/28 07:36:01;;;;;;;16.20;13.77;;;10.00;99.90;;;;;;5083922;28;20460;-70
2021/10/28 07:39:02;;;;;;;15.83;13.07;;;10.00;99.90;;;;;;5095206;28;20450;-69
2021/10/28 07:56:17;;;;;;;16.27;13.10;;;10.00;99.90;;;;;;5033123;28;20458;-68
2021/10/28 08:15:35;;;;;;;17.07;14.30;;;10.60;99.90;;;;;;5094796;28;20452;-68
2021/10/28 08:18:14;;;;;;;16.50;12.97;;;10.70;99.90;;;;;;5095220;28;20495;-68
2021/10/28 08:23:34;;;;;;;17.37;13.63;;;10.90;99.90;;;;;;5078381;28;20488;-69
2021/10/28 08:28:48;;;;;;;17.77;14.00;;;11.10;99.90;;;;;;5104355;28;20492;-69
2021/10/28 08:31:18;;;;;;;15.97;13.50;;;11.20;99.90;;;;;;5103959;28;20440;-68
2021/10/28 08:33:45;;;;;;;17.07;12.60;;;11.20;99.90;;;;;;5103825;28;20481;-68
2021/10/28 08:36:20;;;;;;;17.27;13.37;;;11.30;99.90;;;;;;5103040;28;20875;-69
2021/10/28 08:38:47;;;;;;;16.97;13.10;;;11.30;99.90;;;;;;5104755;28;20468;-68
2021/10/28 08:41:14;;;;;;;18.57;13.53;;;11.30;99.90;;;;;;5098567;28;20474;-68
2021/10/28 08:43:43;;;;;;;15.37;12.30;;;11.30;99.90;;;;;;5094353;28;20545;-68
2021/10/28 08:46:11;;;;;;;16.93;12.70;;;11.30;99.90;;;;;;5094190;28;20457;-68
2021/10/28 08:48:41;;;;;;;19.23;13.03;;;11.40;99.90;;;;;;5094308;28;20462;-70
2021/10/28 08:51:12;;;;;;;16.33;12.80;;;11.50;99.90;;;;;;5094099;28;20459;-68
2021/10/28 08:56:42;;;;;;;18.03;12.53;;;11.60;99.90;;;;;;5067746;28;20824;-69
2021/10/28 08:59:28;;;;;;;16.90;13.40;;;11.70;99.90;;;;;;5093991;28;20902;-69
2021/10/28 09:24:34;;;;;;;16.00;11.97;;;12.40;99.90;;;;;;5097053;28;20565;-69
2021/10/28 09:27:08;;;;;;;15.50;10.97;;;12.50;99.90;;;;;;5097751;28;20442;-69
2021/10/28 09:29:41;;;;;;;14.17;10.80;;;12.60;99.90;;;;;;5097323;28;20445;-69
2021/10/28 09:32:18;;;;;;;13.50;10.73;;;12.60;99.90;;;;;;5100011;28;20523;-69
2021/10/28 09:35:25;;;;;;;16.00;12.23;;;12.60;99.90;;;;;;5099855;28;20945;-69
2021/10/28 09:46:16;;;;;;;19.93;11.47;;;12.70;99.90;;;;;;5097924;28;20774;-69
2021/10/28 09:51:42;;;;;;;17.40;10.17;;;12.90;99.90;;;;;;5097794;28;20431;-69
2021/10/28 09:54:19;;;;;;;12.20;10.37;;;13.00;99.90;;;;;;5097497;28;20787;-69
2021/10/28 09:59:47;;;;;;;11.43;9.93;;;13.30;99.90;;;;;;5097345;28;20483;-69
2021/10/28 10:02:18;;;;;;;12.93;10.03;;;13.40;99.90;;;;;;5097359;28;20445;-68
2021/10/28 10:04:46;;;;;;;18.13;10.80;;;13.50;99.90;;;;;;5097124;28;20503;-68
2021/10/28 10:07:16;;;;;;;13.57;10.00;;;13.60;99.90;;;;;;5097036;28;20836;-69
2021/10/28 10:09:42;;;;;;;13.43;9.47;;;13.60;99.90;;;;;;5096635;28;20461;-69
2021/10/28 10:12:11;;;;;;;13.10;10.10;;;13.70;99.90;;;;;;5096810;28;20453;-69
2021/10/28 10:14:42;;;;;;;12.40;10.47;;;13.70;99.90;;;;;;5096531;28;20590;-70
2021/10/28 10:17:10;;;;;;;13.00;10.90;;;13.80;99.90;;;;;;5096739;28;20442;-69
2021/10/28 10:19:39;;;;;;;13.53;10.33;;;13.90;99.90;;;;;;5096596;28;20453;-69
2021/10/28 10:22:35;;;;;;;14.17;9.80;;;14.00;99.90;;;;;;5096018;28;20463;-69
2021/10/28 10:25:38;;;;;;;11.50;10.00;;;14.00;99.90;;;;;;5096254;28;20495;-69
2021/10/28 11:30:39;;;;;;;11.73;8.93;;;15.10;99.90;;;;;;5095212;28;20445;-68
2021/10/28 12:15:44;;;;;;;7.27;6.57;;;25.60;1.00;;;;;;5094445;28;20485;-69
2021/10/28 12:24:35;;;;;;;6.40;5.40;;;26.40;1.00;;;;;;5132579;27;20821;-68
2021/10/28 12:52:43;;;;;;;6.30;5.70;;;28.50;1.00;;;;;;5104985;27;20470;-68
2021/10/28 13:03:50;;;;;;;4.50;4.10;;;29.10;1.00;;;;;;5131681;28;20463;-69
2021/10/28 13:53:34;;;;;;;7.60;4.70;;;31.10;1.00;;;;;;5117268;28;20455;-69
2021/10/28 13:56:17;;;;;;;8.13;5.20;;;30.80;1.00;;;;;;5117422;28;20480;-69
2021/10/28 14:23:59;;;;;;;8.00;4.03;;;30.00;1.00;;;;;;5091651;28;20457;-69
2021/10/28 14:29:40;;;;;;;6.83;4.40;;;29.90;1.00;;;;;;5091440;28;20505;-69
2021/10/28 15:30:10;;;;;;;6.80;6.00;;;21.00;1.00;;;;;;5111517;28;20417;-74
2021/10/28 15:35:30;;;;;;;8.57;5.67;;;19.80;1.00;;;;;;5111759;28;20420;-75
2021/10/28 15:38:15;;;;;;;8.93;6.40;;;19.40;1.00;;;;;;5111123;28;20483;-74
2021/10/28 16:00:13;;;;;;;9.93;8.90;;;17.10;1.00;;;;;;5075669;28;20488;-71
2021/10/28 16:22:08;;;;;;;12.63;9.17;;;16.00;77.90;;;;;;5096930;28;20483;-70
2021/10/28 16:24:38;;;;;;;11.70;9.07;;;15.90;98.90;;;;;;5096632;28;20462;-71
2021/10/28 16:27:05;;;;;;;11.50;9.70;;;15.90;99.90;;;;;;5096782;28;20937;-70
2021/10/28 16:29:32;;;;;;;13.97;9.90;;;15.80;99.90;;;;;;5097315;28;20454;-70
2021/10/28 16:32:00;;;;;;;10.27;8.97;;;15.70;99.90;;;;;;5096628;28;20771;-70
2021/10/28 16:34:28;;;;;;;11.70;9.67;;;15.70;99.90;;;;;;5096313;28;20449;-70
2021/10/28 16:36:57;;;;;;;14.20;10.10;;;15.60;99.90;;;;;;5096222;28;20453;-70
2021/10/28 16:39:23;;;;;;;13.57;10.70;;;15.50;99.90;;;;;;5096246;28;20546;-71
2021/10/28 16:41:53;;;;;;;11.07;9.87;;;15.50;99.90;;;;;;5096539;28;20782;-71
2021/10/28 16:44:20;;;;;;;13.30;10.80;;;15.40;99.90;;;;;;5096226;28;20928;-71
2021/10/28 16:46:48;;;;;;;11.80;10.17;;;15.30;99.90;;;;;;5095703;28;20453;-70
2021/10/28 16:49:15;;;;;;;16.77;10.67;;;15.30;99.90;;;;;;5096246;28;20460;-70
2021/10/28 16:51:45;;;;;;;16.00;10.57;;;15.20;99.90;;;;;;5096057;28;20457;-70
2021/10/28 16:54:12;;;;;;;12.70;10.00;;;15.20;99.90;;;;;;5096503;28;20450;-70
2021/10/28 16:56:39;;;;;;;11.53;10.27;;;15.10;99.90;;;;;;5095965;28;20461;-70
2021/10/28 16:59:05;;;;;;;11.87;10.27;;;15.10;99.90;;;;;;5096104;28;21004;-70
2021/10/28 17:01:34;;;;;;;13.40;12.00;;;15.10;99.90;;;;;;5095505;28;20488;-71
2021/10/28 17:04:03;;;;;;;15.50;11.60;;;15.00;99.90;;;;;;5095146;28;20490;-70
2021/10/28 17:06:30;;;;;;;13.03;10.40;;;14.90;99.90;;;;;;5096223;28;20469;-70
2021/10/28 17:09:02;;;;;;;11.80;10.60;;;14.90;1.00;;;;;;5095659;28;20564;-70
2021/10/28 17:11:29;;;;;;;13.63;10.43;;;14.90;1.00;;;;;;5095904;28;20452;-70
2021/10/28 17:13:56;;;;;;;16.00;10.80;;;14.80;1.00;;;;;;5096058;28;20458;-70
2021/10/28 17:16:24;;;;;;;12.20;10.40;;;14.80;1.00;;;;;;5096190;28;20458;-69
2021/10/28 17:18:50;;;;;;;14.50;11.03;;;14.80;1.00;;;;;;5095487;28;20934;-70
2021/10/28 17:21:17;;;;;;;14.70;11.97;;;14.70;1.00;;;;;;5095887;28;20462;-69
2021/10/28 17:23:49;;;;;;;13.70;11.13;;;14.70;1.00;;;;;;5096022;28;20742;-69
2021/10/28 17:26:17;;;;;;;14.87;11.63;;;14.70;1.00;;;;;;5095997;28;20438;-69
2021/10/28 17:28:44;;;;;;;14.80;10.87;;;14.60;1.00;;;;;;5095544;28;20839;-69
2021/10/28 17:31:11;;;;;;;12.47;11.17;;;14.60;1.00;;;;;;5095382;28;20462;-70
2021/10/28 17:33:38;;;;;;;16.50;11.50;;;14.60;1.00;;;;;;5095972;28;20540;-69
2021/10/28 17:36:05;;;;;;;18.03;11.93;;;14.50;1.00;;;;;;5095684;28;20462;-69
2021/10/28 17:38:35;;;;;;;13.30;10.77;;;14.50;1.00;;;;;;5095340;28;20961;-69
2021/10/28 17:41:06;;;;;;;13.50;11.87;;;14.50;1.00;;;;;;5095730;28;20448;-69
2021/10/28 17:43:40;;;;;;;13.13;11.33;;;14.40;1.00;;;;;;5094899;28;20457;-69
2021/10/28 17:46:08;;;;;;;13.70;11.30;;;14.40;1.00;;;;;;5094902;28;20504;-69
2021/10/28 17:48:34;;;;;;;17.47;11.93;;;14.30;1.00;;;;;;5095351;28;20527;-69
2021/10/28 17:51:02;;;;;;;16.60;11.20;;;14.30;1.00;;;;;;5095283;28;20465;-69
2021/10/28 17:53:28;;;;;;;13.10;9.77;;;14.30;1.00;;;;;;5095310;28;20456;-69
2021/10/28 17:55:55;;;;;;;15.37;9.80;;;14.20;1.00;;;;;;5095704;28;20449;-69
2021/10/28 17:58:22;;;;;;;10.23;9.10;;;14.10;1.00;;;;;;5095381;28;20454;-70
2021/10/28 18:00:50;;;;;;;14.13;8.73;;;14.10;1.00;;;;;;5094954;28;20772;-69
2021/10/28 18:03:20;;;;;;;10.77;9.70;;;14.10;1.00;;;;;;5095354;28;20548;-70
2021/10/28 18:05:47;;;;;;;11.27;10.10;;;14.10;1.00;;;;;;5094686;28;20453;-69
2021/10/28 18:08:15;;;;;;;11.53;9.83;;;14.10;1.00;;;;;;5094548;28;20462;-69
2021/10/28 18:10:42;;;;;;;11.50;9.47;;;14.00;1.00;;;;;;5095151;28;20446;-69
2021/10/28 18:13:12;;;;;;;11.90;8.93;;;14.00;1.00;;;;;;5094541;28;20453;-71
2021/10/28 18:15:39;;;;;;;11.63;9.03;;;14.00;1.00;;;;;;5094984;28;20541;-69
2021/10/28 18:18:08;;;;;;;12.60;9.40;;;13.90;1.00;;;;;;5094980;28;20535;-69
2021/10/28 18:20:36;;;;;;;10.20;8.77;;;13.80;1.00;;;;;;5095101;28;20551;-70
2021/10/28 18:23:03;;;;;;;11.97;9.57;;;13.80;15.70;;;;;;5095020;28;20925;-69
2021/10/28 18:25:31;;;;;;;12.20;9.10;;;13.80;20.00;;;;;;5095027;28;20454;-69
2021/10/28 18:27:58;;;;;;;11.73;9.10;;;13.80;15.30;;;;;;5094874;28;20458;-69
2021/10/28 18:30:28;;;;;;;16.00;10.90;;;13.70;57.80;;;;;;5094973;28;20499;-70
2021/10/28 18:32:55;;;;;;;12.93;9.30;;;13.60;89.70;;;;;;5094586;28;20457;-69
2021/10/28 18:35:24;;;;;;;12.60;9.60;;;13.60;58.70;;;;;;5095954;28;20545;-69
2021/10/28 18:37:51;;;;;;;17.27;10.13;;;13.60;29.30;;;;;;5098309;28;20461;-69
2021/10/28 18:40:20;;;;;;;11.60;9.13;;;13.60;1.00;;;;;;5099057;28;20819;-69
2021/10/28 18:42:49;;;;;;;12.93;10.00;;;13.60;1.00;;;;;;5100407;28;20455;-69
2021/10/28 18:45:17;;;;;;;13.40;9.97;;;13.60;1.00;;;;;;5098867;28;20807;-69
2021/10/28 18:47:45;;;;;;;12.10;9.57;;;13.60;1.00;;;;;;5097727;28;20578;-69
2021/10/28 18:50:12;;;;;;;13.97;10.70;;;13.50;59.50;;;;;;5100824;28;20460;-70
2021/10/28 18:52:43;;;;;;;16.23;11.17;;;13.50;88.10;;;;;;5097243;28;20582;-69
2021/10/28 18:55:10;;;;;;;12.70;11.33;;;13.50;99.90;;;;;;5102005;28;20457;-69
2021/10/28 18:57:38;;;;;;;14.70;11.57;;;13.40;99.90;;;;;;5101284;28;20540;-69
2021/10/28 19:00:08;;;;;;;17.53;11.33;;;13.40;99.90;;;;;;5095204;28;20564;-69
2021/10/28 19:02:36;;;;;;;14.63;11.77;;;13.30;99.90;;;;;;5095463;28;20480;-69
2021/10/28 19:05:04;;;;;;;12.83;10.87;;;13.30;1.00;;;;;;5094341;28;20948;-70
2021/10/28 19:07:33;;;;;;;16.57;12.43;;;13.20;1.00;;;;;;5094082;28;20458;-70
2021/10/28 19:10:02;;;;;;;15.97;13.07;;;13.10;1.00;;;;;;5094635;28;20488;-69
2021/10/28 19:12:29;;;;;;;17.47;11.23;;;13.10;36.70;;;;;;5094337;28;20790;-68
2021/10/28 19:14:56;;;;;;;12.27;10.70;;;13.00;99.90;;;;;;5094119;28;20464;-70
2021/10/28 19:17:24;;;;;;;14.53;10.97;;;12.90;99.90;;;;;;5094105;28;20522;-69
2021/10/28 19:19:51;;;;;;;14.10;11.13;;;12.90;1.00;;;;;;5093938;28;20538;-69
2021/10/28 19:22:19;;;;;;;13.40;10.33;;;12.80;99.90;;;;;;5094200;28;20925;-69
2021/10/28 19:24:46;;;;;;;12.47;10.57;;;12.80;99.90;;;;;;5094170;28;20471;-69
2021/10/28 19:27:17;;;;;;;12.00;10.20;;;12.70;99.90;;;;;;5098089;28;20458;-69
2021/10/28 19:29:50;;;;;;;13.67;10.23;;;12.60;1.00;;;;;;5098660;28;20828;-69
2021/10/28 19:32:20;;;;;;;11.27;9.70;;;12.60;99.90;;;;;;5097654;28;20449;-68
2021/10/28 19:34:48;;;;;;;10.60;9.40;;;12.60;1.00;;;;;;5097641;28;20502;-69
2021/10/28 19:37:18;;;;;;;9.93;8.87;;;12.50;99.90;;;;;;5097793;28;20496;-69
2021/10/28 19:45:32;;;;;;;11.30;9.70;;;12.40;99.90;;;;;;5088396;28;20465;-69
2021/10/28 19:48:00;;;;;;;14.40;11.57;;;12.40;1.00;;;;;;5097322;28;20446;-69
2021/10/28 19:50:27;;;;;;;11.97;9.73;;;12.40;1.00;;;;;;5097735;28;20457;-70
2021/10/28 19:52:55;;;;;;;10.83;9.70;;;12.40;1.00;;;;;;5097772;28;20485;-70
2021/10/28 19:55:22;;;;;;;11.00;9.80;;;12.40;1.00;;;;;;5097571;28;20453;-69
2021/10/28 19:57:53;;;;;;;10.40;9.00;;;12.40;1.00;;;;;;5097608;28;20450;-69
2021/10/28 20:00:27;;;;;;;12.23;9.20;;;12.40;99.90;;;;;;5097131;28;20434;-69
2021/10/28 20:22:11;;;;;;;11.00;8.83;;;12.10;1.00;;;;;;5083408;28;20451;-70
2021/10/28 20:24:38;;;;;;;10.73;8.90;;;12.10;93.90;;;;;;5096774;28;20460;-70
2021/10/28 20:27:05;;;;;;;11.10;9.10;;;12.10;1.00;;;;;;5096531;28;20455;-70
2021/10/28 20:29:34;;;;;;;12.27;9.30;;;12.00;1.00;;;;;;5096355;28;20452;-69
2021/10/28 20:32:01;;;;;;;12.33;9.73;;;12.00;56.60;;;;;;5097061;28;20521;-70
2021/10/28 20:34:30;;;;;;;12.93;9.60;;;12.00;1.00;;;;;;5097246;28;20468;-70
2021/10/28 20:37:07;;;;;;;11.73;9.30;;;11.90;1.00;;;;;;5096847;28;20503;-69